sensor_id;sensor_type;location;lat;lon;timestamp;P1;durP1;ratioP1;P2;durP2;ratioP2
38557;SDS011;24333;42.626;23.308;2023-09-19T00:01:06;8.05;;;3.67;;
38557;SDS011;24333;42.626;23.308;2023-09-19T00:03:36;6.78;;;3.92;;
38557;SDS011;24333;42.626;23.308;2023-09-19T00:06:02;5.40;;;3.42;;
38557;SDS011;24333;42.626;23.308;2023-09-19T00:34:21;8.02;;;4.15;;
38557;SDS011;24333;42.626;23.308;2023-09-19T00:36:47;7.65;;;4.18;;
38557;SDS011;24333;42.626;23.308;2023-09-19T00:41:48;7.38;;;3.83;;
38557;SDS011;24333;42.626;23.308;2023-09-19T00:44:15;6.32;;;3.42;;
38557;SDS011;24333;42.626;23.308;2023-09-19T00:46:41;7.68;;;3.97;;
38557;SDS011;24333;42.626;23.308;2023-09-19T00:49:07;6.72;;;4.05;;
38557;SDS011;24333;42.626;23.308;2023-09-19T00:51:36;12.18;;;3.22;;
38557;SDS011;24333;42.626;23.308;2023-09-19T01:00:36;10.43;;;4.45;;
38557;SDS011;24333;42.626;23.308;2023-09-19T01:03:02;10.13;;;4.25;;
38557;SDS011;24333;42.626;23.308;2023-09-19T01:05:45;9.45;;;3.90;;
38557;SDS011;24333;42.626;23.308;2023-09-19T01:08:20;8.68;;;3.70;;
38557;SDS011;24333;42.626;23.308;2023-09-19T01:10:52;6.85;;;3.75;;
38557;SDS011;24333;42.626;23.308;2023-09-19T01:13:35;9.57;;;4.32;;
38557;SDS011;24333;42.626;23.308;2023-09-19T01:16:33;8.95;;;4.28;;
38557;SDS011;24333;42.626;23.308;2023-09-19T01:28:15;10.05;;;4.68;;
38557;SDS011;24333;42.626;23.308;2023-09-19T01:30:24;12.27;;;5.15;;
38557;SDS011;24333;42.626;23.308;2023-09-19T01:32:52;8.88;;;4.30;;
38557;SDS011;24333;42.626;23.308;2023-09-19T01:35:19;8.98;;;4.55;;
38557;SDS011;24333;42.626;23.308;2023-09-19T01:37:44;12.13;;;4.47;;
38557;SDS011;24333;42.626;23.308;2023-09-19T01:40:12;10.93;;;5.10;;
38557;SDS011;24333;42.626;23.308;2023-09-19T01:42:44;8.45;;;4.22;;
38557;SDS011;24333;42.626;23.308;2023-09-19T01:48:02;7.80;;;4.07;;
38557;SDS011;24333;42.626;23.308;2023-09-19T01:50:43;11.25;;;4.45;;
38557;SDS011;24333;42.626;23.308;2023-09-19T01:53:24;7.18;;;4.45;;
38557;SDS011;24333;42.626;23.308;2023-09-19T01:55:56;8.48;;;4.50;;
38557;SDS011;24333;42.626;23.308;2023-09-19T02:00:53;8.73;;;4.25;;
38557;SDS011;24333;42.626;23.308;2023-09-19T02:03:22;12.70;;;4.47;;
38557;SDS011;24333;42.626;23.308;2023-09-19T02:05:49;6.97;;;4.22;;
38557;SDS011;24333;42.626;23.308;2023-09-19T02:08:19;8.38;;;4.78;;
38557;SDS011;24333;42.626;23.308;2023-09-19T02:10:47;6.90;;;4.13;;
38557;SDS011;24333;42.626;23.308;2023-09-19T02:13:15;8.57;;;4.25;;
38557;SDS011;24333;42.626;23.308;2023-09-19T02:15:42;12.27;;;4.38;;
38557;SDS011;24333;42.626;23.308;2023-09-19T02:18:09;9.63;;;4.20;;
38557;SDS011;24333;42.626;23.308;2023-09-19T02:20:34;10.70;;;4.50;;
38557;SDS011;24333;42.626;23.308;2023-09-19T02:23:00;16.73;;;4.70;;
38557;SDS011;24333;42.626;23.308;2023-09-19T02:25:26;9.60;;;4.88;;
38557;SDS011;24333;42.626;23.308;2023-09-19T02:27:52;8.63;;;4.50;;
38557;SDS011;24333;42.626;23.308;2023-09-19T02:30:19;7.90;;;4.10;;
38557;SDS011;24333;42.626;23.308;2023-09-19T02:32:47;12.15;;;4.85;;
38557;SDS011;24333;42.626;23.308;2023-09-19T02:35:14;9.00;;;4.07;;
38557;SDS011;24333;42.626;23.308;2023-09-19T02:37:40;12.82;;;4.82;;
38557;SDS011;24333;42.626;23.308;2023-09-19T02:40:06;6.78;;;3.85;;
38557;SDS011;24333;42.626;23.308;2023-09-19T02:42:43;6.80;;;4.30;;
38557;SDS011;24333;42.626;23.308;2023-09-19T02:45:13;7.50;;;4.05;;
38557;SDS011;24333;42.626;23.308;2023-09-19T02:47:42;7.38;;;4.10;;
38557;SDS011;24333;42.626;23.308;2023-09-19T02:50:08;7.50;;;3.80;;
38557;SDS011;24333;42.626;23.308;2023-09-19T02:52:36;8.43;;;4.57;;
38557;SDS011;24333;42.626;23.308;2023-09-19T02:55:01;9.10;;;4.47;;
38557;SDS011;24333;42.626;23.308;2023-09-19T02:57:28;6.05;;;4.05;;
38557;SDS011;24333;42.626;23.308;2023-09-19T02:59:54;8.98;;;3.78;;
38557;SDS011;24333;42.626;23.308;2023-09-19T03:02:19;7.28;;;4.43;;
38557;SDS011;24333;42.626;23.308;2023-09-19T03:04:46;11.52;;;3.72;;
38557;SDS011;24333;42.626;23.308;2023-09-19T03:07:12;12.20;;;4.85;;
38557;SDS011;24333;42.626;23.308;2023-09-19T03:09:37;8.20;;;4.25;;
38557;SDS011;24333;42.626;23.308;2023-09-19T03:12:03;7.80;;;4.55;;
38557;SDS011;24333;42.626;23.308;2023-09-19T03:14:29;7.47;;;4.53;;
38557;SDS011;24333;42.626;23.308;2023-09-19T03:17:00;9.15;;;4.50;;
38557;SDS011;24333;42.626;23.308;2023-09-19T03:19:25;8.40;;;4.72;;
38557;SDS011;24333;42.626;23.308;2023-09-19T03:21:51;9.35;;;4.32;;
38557;SDS011;24333;42.626;23.308;2023-09-19T03:24:18;8.95;;;4.57;;
38557;SDS011;24333;42.626;23.308;2023-09-19T06:21:19;15.38;;;4.93;;
38557;SDS011;24333;42.626;23.308;2023-09-19T06:23:44;17.35;;;4.30;;
38557;SDS011;24333;42.626;23.308;2023-09-19T06:26:10;9.18;;;4.50;;
38557;SDS011;24333;42.626;23.308;2023-09-19T06:28:35;10.55;;;5.18;;
38557;SDS011;24333;42.626;23.308;2023-09-19T06:31:02;8.20;;;4.15;;
38557;SDS011;24333;42.626;23.308;2023-09-19T06:33:29;10.98;;;4.85;;
38557;SDS011;24333;42.626;23.308;2023-09-19T06:35:56;7.97;;;4.07;;
38557;SDS011;24333;42.626;23.308;2023-09-19T06:38:25;7.50;;;3.70;;
38557;SDS011;24333;42.626;23.308;2023-09-19T06:40:50;7.03;;;3.58;;
38557;SDS011;24333;42.626;23.308;2023-09-19T06:43:17;11.43;;;3.75;;
38557;SDS011;24333;42.626;23.308;2023-09-19T06:45:48;8.05;;;3.58;;
38557;SDS011;24333;42.626;23.308;2023-09-19T06:48:15;6.28;;;3.65;;
38557;SDS011;24333;42.626;23.308;2023-09-19T06:50:40;6.65;;;3.60;;
38557;SDS011;24333;42.626;23.308;2023-09-19T06:53:12;11.50;;;3.92;;
38557;SDS011;24333;42.626;23.308;2023-09-19T06:55:48;6.28;;;3.10;;
38557;SDS011;24333;42.626;23.308;2023-09-19T06:58:15;6.15;;;3.95;;
38557;SDS011;24333;42.626;23.308;2023-09-19T07:00:41;8.20;;;3.22;;
38557;SDS011;24333;42.626;23.308;2023-09-19T07:24:16;17.58;;;3.67;;
38557;SDS011;24333;42.626;23.308;2023-09-19T07:26:42;19.42;;;4.43;;
38557;SDS011;24333;42.626;23.308;2023-09-19T07:29:07;5.68;;;3.22;;
38557;SDS011;24333;42.626;23.308;2023-09-19T07:34:09;6.85;;;3.65;;
38557;SDS011;24333;42.626;23.308;2023-09-19T07:36:35;9.68;;;3.83;;
38557;SDS011;24333;42.626;23.308;2023-09-19T07:49:23;7.18;;;3.50;;
38557;SDS011;24333;42.626;23.308;2023-09-19T07:51:48;8.48;;;4.40;;
38557;SDS011;24333;42.626;23.308;2023-09-19T07:54:14;8.57;;;3.78;;
38557;SDS011;24333;42.626;23.308;2023-09-19T07:57:22;10.50;;;3.90;;
38557;SDS011;24333;42.626;23.308;2023-09-19T08:00:06;9.27;;;3.90;;
38557;SDS011;24333;42.626;23.308;2023-09-19T08:05:11;9.43;;;3.70;;
38557;SDS011;24333;42.626;23.308;2023-09-19T08:07:41;14.05;;;4.05;;
38557;SDS011;24333;42.626;23.308;2023-09-19T08:10:10;9.65;;;3.75;;
38557;SDS011;24333;42.626;23.308;2023-09-19T08:12:40;7.05;;;4.03;;
38557;SDS011;24333;42.626;23.308;2023-09-19T08:27:13;9.65;;;4.03;;
38557;SDS011;24333;42.626;23.308;2023-09-19T08:29:44;8.68;;;4.13;;
38557;SDS011;24333;42.626;23.308;2023-09-19T08:32:10;6.43;;;3.53;;
38557;SDS011;24333;42.626;23.308;2023-09-19T08:34:36;10.43;;;4.40;;
38557;SDS011;24333;42.626;23.308;2023-09-19T08:37:03;8.88;;;3.95;;
38557;SDS011;24333;42.626;23.308;2023-09-19T08:39:29;13.80;;;3.58;;
38557;SDS011;24333;42.626;23.308;2023-09-19T08:41:59;11.13;;;3.63;;
38557;SDS011;24333;42.626;23.308;2023-09-19T08:44:26;17.48;;;4.18;;
38557;SDS011;24333;42.626;23.308;2023-09-19T08:47:01;12.30;;;4.20;;
38557;SDS011;24333;42.626;23.308;2023-09-19T09:00:37;7.57;;;3.95;;
38557;SDS011;24333;42.626;23.308;2023-09-19T09:03:08;7.97;;;3.90;;
38557;SDS011;24333;42.626;23.308;2023-09-19T09:05:45;10.95;;;3.78;;
38557;SDS011;24333;42.626;23.308;2023-09-19T09:22:53;14.90;;;4.40;;
38557;SDS011;24333;42.626;23.308;2023-09-19T09:25:21;12.98;;;3.88;;
38557;SDS011;24333;42.626;23.308;2023-09-19T09:28:00;7.07;;;3.67;;
38557;SDS011;24333;42.626;23.308;2023-09-19T09:30:33;9.38;;;3.78;;
38557;SDS011;24333;42.626;23.308;2023-09-19T09:33:09;12.05;;;4.43;;
38557;SDS011;24333;42.626;23.308;2023-09-19T09:35:37;11.60;;;4.10;;
38557;SDS011;24333;42.626;23.308;2023-09-19T10:06:59;8.60;;;3.60;;
38557;SDS011;24333;42.626;23.308;2023-09-19T10:09:30;12.88;;;3.47;;
38557;SDS011;24333;42.626;23.308;2023-09-19T10:12:07;9.27;;;3.92;;
38557;SDS011;24333;42.626;23.308;2023-09-19T10:14:37;9.60;;;3.80;;
38557;SDS011;24333;42.626;23.308;2023-09-19T10:17:08;9.02;;;3.55;;
38557;SDS011;24333;42.626;23.308;2023-09-19T10:19:42;8.40;;;3.47;;
38557;SDS011;24333;42.626;23.308;2023-09-19T10:22:22;8.25;;;2.90;;
38557;SDS011;24333;42.626;23.308;2023-09-19T10:24:49;6.10;;;3.13;;
38557;SDS011;24333;42.626;23.308;2023-09-19T10:27:18;6.10;;;2.97;;
38557;SDS011;24333;42.626;23.308;2023-09-19T10:29:48;5.88;;;2.90;;
38557;SDS011;24333;42.626;23.308;2023-09-19T10:32:19;5.57;;;3.17;;
38557;SDS011;24333;42.626;23.308;2023-09-19T10:34:49;7.75;;;3.08;;
38557;SDS011;24333;42.626;23.308;2023-09-19T10:37:18;5.85;;;2.90;;
38557;SDS011;24333;42.626;23.308;2023-09-19T10:39:50;7.75;;;2.80;;
38557;SDS011;24333;42.626;23.308;2023-09-19T10:42:18;6.43;;;3.25;;
38557;SDS011;24333;42.626;23.308;2023-09-19T10:44:45;12.63;;;3.58;;
38557;SDS011;24333;42.626;23.308;2023-09-19T10:47:14;11.07;;;3.45;;
38557;SDS011;24333;42.626;23.308;2023-09-19T10:49:44;5.32;;;3.00;;
38557;SDS011;24333;42.626;23.308;2023-09-19T10:52:17;6.50;;;3.90;;
38557;SDS011;24333;42.626;23.308;2023-09-19T10:54:46;5.85;;;3.08;;
38557;SDS011;24333;42.626;23.308;2023-09-19T10:57:28;6.13;;;3.25;;
38557;SDS011;24333;42.626;23.308;2023-09-19T11:00:05;6.43;;;3.22;;
38557;SDS011;24333;42.626;23.308;2023-09-19T11:05:43;8.23;;;3.72;;
38557;SDS011;24333;42.626;23.308;2023-09-19T11:08:26;7.50;;;3.05;;
38557;SDS011;24333;42.626;23.308;2023-09-19T11:10:52;9.52;;;2.83;;
38557;SDS011;24333;42.626;23.308;2023-09-19T11:13:35;7.05;;;2.97;;
38557;SDS011;24333;42.626;23.308;2023-09-19T11:16:03;6.95;;;3.33;;
38557;SDS011;24333;42.626;23.308;2023-09-19T11:26:47;5.30;;;3.05;;
38557;SDS011;24333;42.626;23.308;2023-09-19T11:29:28;5.57;;;3.28;;
38557;SDS011;24333;42.626;23.308;2023-09-19T11:31:56;10.68;;;3.42;;
38557;SDS011;24333;42.626;23.308;2023-09-19T11:37:00;6.57;;;3.15;;
38557;SDS011;24333;42.626;23.308;2023-09-19T11:39:29;8.75;;;2.92;;
38557;SDS011;24333;42.626;23.308;2023-09-19T11:41:55;10.02;;;2.95;;
38557;SDS011;24333;42.626;23.308;2023-09-19T11:44:31;6.57;;;3.08;;
38557;SDS011;24333;42.626;23.308;2023-09-19T11:46:59;5.15;;;3.08;;
38557;SDS011;24333;42.626;23.308;2023-09-19T12:35:06;6.60;;;3.25;;
38557;SDS011;24333;42.626;23.308;2023-09-19T12:53:24;7.50;;;3.20;;
38557;SDS011;24333;42.626;23.308;2023-09-19T12:56:02;8.40;;;3.00;;
38557;SDS011;24333;42.626;23.308;2023-09-19T14:31:03;4.40;;;2.60;;
38557;SDS011;24333;42.626;23.308;2023-09-19T14:33:36;5.28;;;2.95;;
38557;SDS011;24333;42.626;23.308;2023-09-19T14:36:06;10.95;;;2.75;;
38557;SDS011;24333;42.626;23.308;2023-09-19T14:38:34;3.85;;;2.47;;
38557;SDS011;24333;42.626;23.308;2023-09-19T14:41:04;4.18;;;2.65;;
38557;SDS011;24333;42.626;23.308;2023-09-19T14:43:31;4.68;;;2.78;;
38557;SDS011;24333;42.626;23.308;2023-09-19T14:46:02;5.03;;;3.03;;
38557;SDS011;24333;42.626;23.308;2023-09-19T14:48:35;6.38;;;2.80;;
38557;SDS011;24333;42.626;23.308;2023-09-19T15:13:18;6.00;;;2.92;;
38557;SDS011;24333;42.626;23.308;2023-09-19T15:15:43;8.90;;;3.50;;
38557;SDS011;24333;42.626;23.308;2023-09-19T15:18:12;7.22;;;3.10;;
38557;SDS011;24333;42.626;23.308;2023-09-19T15:20:42;7.40;;;3.47;;
38557;SDS011;24333;42.626;23.308;2023-09-19T15:23:11;7.50;;;3.88;;
38557;SDS011;24333;42.626;23.308;2023-09-19T15:25:37;10.23;;;4.65;;
38557;SDS011;24333;42.626;23.308;2023-09-19T15:28:03;5.78;;;3.85;;
38557;SDS011;24333;42.626;23.308;2023-09-19T15:30:36;12.38;;;4.50;;
38557;SDS011;24333;42.626;23.308;2023-09-19T15:33:03;8.43;;;4.88;;
38557;SDS011;24333;42.626;23.308;2023-09-19T15:35:29;10.20;;;5.35;;
38557;SDS011;24333;42.626;23.308;2023-09-19T15:37:54;7.55;;;4.60;;
38557;SDS011;24333;42.626;23.308;2023-09-19T15:40:21;9.80;;;4.03;;
38557;SDS011;24333;42.626;23.308;2023-09-19T15:42:49;8.63;;;4.35;;
38557;SDS011;24333;42.626;23.308;2023-09-19T15:45:14;8.10;;;4.28;;
38557;SDS011;24333;42.626;23.308;2023-09-19T15:47:41;8.40;;;3.85;;
38557;SDS011;24333;42.626;23.308;2023-09-19T15:52:44;16.17;;;4.90;;
38557;SDS011;24333;42.626;23.308;2023-09-19T15:57:49;12.70;;;6.40;;
38557;SDS011;24333;42.626;23.308;2023-09-19T16:00:14;21.95;;;9.75;;
38557;SDS011;24333;42.626;23.308;2023-09-19T16:02:42;23.55;;;10.60;;
38557;SDS011;24333;42.626;23.308;2023-09-19T16:05:10;19.67;;;8.52;;
38557;SDS011;24333;42.626;23.308;2023-09-19T16:07:46;26.55;;;10.60;;
38557;SDS011;24333;42.626;23.308;2023-09-19T16:10:34;20.05;;;9.40;;
38557;SDS011;24333;42.626;23.308;2023-09-19T16:13:06;12.75;;;6.43;;
38557;SDS011;24333;42.626;23.308;2023-09-19T16:15:46;14.63;;;6.00;;
38557;SDS011;24333;42.626;23.308;2023-09-19T16:18:14;11.88;;;5.88;;
38557;SDS011;24333;42.626;23.308;2023-09-19T16:20:50;11.43;;;5.63;;
38557;SDS011;24333;42.626;23.308;2023-09-19T16:23:21;8.82;;;4.88;;
38557;SDS011;24333;42.626;23.308;2023-09-19T16:25:48;12.32;;;5.05;;
38557;SDS011;24333;42.626;23.308;2023-09-19T16:28:31;12.18;;;5.50;;
38557;SDS011;24333;42.626;23.308;2023-09-19T16:31:01;8.27;;;4.90;;
38557;SDS011;24333;42.626;23.308;2023-09-19T16:34:09;13.98;;;4.75;;
38557;SDS011;24333;42.626;23.308;2023-09-19T16:36:34;10.25;;;4.88;;
38557;SDS011;24333;42.626;23.308;2023-09-19T16:41:50;13.15;;;5.53;;
38557;SDS011;24333;42.626;23.308;2023-09-19T16:51:57;9.70;;;3.90;;
38557;SDS011;24333;42.626;23.308;2023-09-19T16:54:23;10.82;;;4.47;;
38557;SDS011;24333;42.626;23.308;2023-09-19T16:56:49;7.00;;;3.85;;
38557;SDS011;24333;42.626;23.308;2023-09-19T16:59:14;11.73;;;3.90;;
38557;SDS011;24333;42.626;23.308;2023-09-19T17:01:43;17.58;;;4.70;;
38557;SDS011;24333;42.626;23.308;2023-09-19T17:04:08;10.68;;;4.28;;
38557;SDS011;24333;42.626;23.308;2023-09-19T17:06:37;14.68;;;4.72;;
38557;SDS011;24333;42.626;23.308;2023-09-19T17:09:06;6.88;;;3.60;;
38557;SDS011;24333;42.626;23.308;2023-09-19T17:12:03;7.72;;;4.25;;
38557;SDS011;24333;42.626;23.308;2023-09-19T17:14:39;10.48;;;3.67;;
38557;SDS011;24333;42.626;23.308;2023-09-19T17:17:09;8.50;;;3.83;;
38557;SDS011;24333;42.626;23.308;2023-09-19T17:19:40;8.85;;;3.72;;
38557;SDS011;24333;42.626;23.308;2023-09-19T17:22:11;5.95;;;3.55;;
38557;SDS011;24333;42.626;23.308;2023-09-19T17:24:40;14.60;;;4.93;;
38557;SDS011;24333;42.626;23.308;2023-09-19T17:27:06;13.98;;;3.92;;
38557;SDS011;24333;42.626;23.308;2023-09-19T17:29:49;6.90;;;4.05;;
38557;SDS011;24333;42.626;23.308;2023-09-19T17:32:44;10.85;;;4.28;;
38557;SDS011;24333;42.626;23.308;2023-09-19T17:35:14;7.05;;;3.53;;
38557;SDS011;24333;42.626;23.308;2023-09-19T17:37:43;9.65;;;4.10;;
38557;SDS011;24333;42.626;23.308;2023-09-19T19:14:23;6.22;;;3.85;;
38557;SDS011;24333;42.626;23.308;2023-09-19T19:16:49;12.85;;;4.30;;
38557;SDS011;24333;42.626;23.308;2023-09-19T19:19:15;10.95;;;4.05;;
38557;SDS011;24333;42.626;23.308;2023-09-19T19:21:41;10.40;;;4.35;;
38557;SDS011;24333;42.626;23.308;2023-09-19T19:24:07;8.80;;;3.88;;
38557;SDS011;24333;42.626;23.308;2023-09-19T19:26:32;10.32;;;4.18;;
38557;SDS011;24333;42.626;23.308;2023-09-19T19:28:58;10.48;;;4.10;;
38557;SDS011;24333;42.626;23.308;2023-09-19T19:31:23;9.48;;;4.15;;
38557;SDS011;24333;42.626;23.308;2023-09-19T19:33:53;9.13;;;4.40;;
38557;SDS011;24333;42.626;23.308;2023-09-19T19:36:31;9.50;;;4.10;;
38557;SDS011;24333;42.626;23.308;2023-09-19T19:38:58;18.38;;;5.20;;
38557;SDS011;24333;42.626;23.308;2023-09-19T19:41:24;10.43;;;4.35;;
38557;SDS011;24333;42.626;23.308;2023-09-19T19:43:49;9.77;;;4.50;;
38557;SDS011;24333;42.626;23.308;2023-09-19T19:46:15;12.02;;;4.10;;
38557;SDS011;24333;42.626;23.308;2023-09-19T19:48:40;8.40;;;4.25;;
38557;SDS011;24333;42.626;23.308;2023-09-19T19:51:08;14.25;;;4.18;;
38557;SDS011;24333;42.626;23.308;2023-09-19T19:53:36;16.30;;;4.72;;
38557;SDS011;24333;42.626;23.308;2023-09-19T19:56:03;8.27;;;4.10;;
38557;SDS011;24333;42.626;23.308;2023-09-19T22:19:47;4.72;;;2.30;;
38557;SDS011;24333;42.626;23.308;2023-09-19T22:22:13;4.18;;;2.35;;
38557;SDS011;24333;42.626;23.308;2023-09-19T22:24:38;3.85;;;2.53;;
38557;SDS011;24333;42.626;23.308;2023-09-19T22:27:05;3.40;;;2.20;;
38557;SDS011;24333;42.626;23.308;2023-09-19T22:29:31;4.80;;;2.45;;
38557;SDS011;24333;42.626;23.308;2023-09-19T22:31:58;4.88;;;2.63;;
38557;SDS011;24333;42.626;23.308;2023-09-19T22:34:24;3.25;;;2.25;;
38557;SDS011;24333;42.626;23.308;2023-09-19T22:36:49;5.70;;;2.30;;
38557;SDS011;24333;42.626;23.308;2023-09-19T22:39:19;6.72;;;2.03;;
38557;SDS011;24333;42.626;23.308;2023-09-19T22:41:49;4.10;;;2.13;;
38557;SDS011;24333;42.626;23.308;2023-09-19T22:44:19;3.70;;;2.03;;
38557;SDS011;24333;42.626;23.308;2023-09-19T22:46:46;7.82;;;2.30;;
38557;SDS011;24333;42.626;23.308;2023-09-19T22:49:13;3.80;;;2.10;;
38557;SDS011;24333;42.626;23.308;2023-09-19T22:51:48;4.95;;;2.58;;
38557;SDS011;24333;42.626;23.308;2023-09-19T22:54:17;5.60;;;2.20;;
38557;SDS011;24333;42.626;23.308;2023-09-19T22:56:49;5.85;;;2.03;;
38557;SDS011;24333;42.626;23.308;2023-09-19T22:59:16;4.32;;;2.28;;
38557;SDS011;24333;42.626;23.308;2023-09-19T23:01:45;7.38;;;2.47;;
38557;SDS011;24333;42.626;23.308;2023-09-19T23:04:30;4.10;;;2.72;;
38557;SDS011;24333;42.626;23.308;2023-09-19T23:06:55;8.55;;;2.20;;
38557;SDS011;24333;42.626;23.308;2023-09-19T23:09:32;3.33;;;2.25;;
38557;SDS011;24333;42.626;23.308;2023-09-19T23:12:00;3.20;;;1.98;;
38557;SDS011;24333;42.626;23.308;2023-09-19T23:14:33;3.92;;;2.40;;
38557;SDS011;24333;42.626;23.308;2023-09-19T23:17:06;4.17;;;1.87;;
38557;SDS011;24333;42.626;23.308;2023-09-19T23:19:40;3.08;;;1.90;;
38557;SDS011;24333;42.626;23.308;2023-09-19T23:22:06;4.60;;;2.60;;
38557;SDS011;24333;42.626;23.308;2023-09-19T23:24:45;5.32;;;2.83;;
38557;SDS011;24333;42.626;23.308;2023-09-19T23:27:20;7.43;;;2.70;;
38557;SDS011;24333;42.626;23.308;2023-09-19T23:29:58;3.33;;;2.00;;
38557;SDS011;24333;42.626;23.308;2023-09-19T23:55:36;5.03;;;2.33;;
38557;SDS011;24333;42.626;23.308;2023-09-19T23:58:03;3.75;;;2.22;;
